Time;durP1;ratioP1;P1;durP2;ratioP2;P2;SDS_P1;SDS_P2;PMS_P1;PMS_P2;Temp;Humidity;BMP_temperature;BMP_pressure;BME280_temperature;BME280_humidity;BME280_pressure;Samples;Min_cycle;Max_cycle;Signal;HPM_P1;HPM_P2
2021/08/07 00:02:14;;;;;;;7.35;4.40;;;16.30;99.90;;;;;;5136266;28;20054;-79
2021/08/07 00:04:42;;;;;;;8.77;4.40;;;16.30;99.90;;;;;;5136259;28;20133;-79
2021/08/07 00:07:08;;;;;;;9.10;4.57;;;16.30;99.90;;;;;;5131242;28;20196;-79
2021/08/07 00:09:35;;;;;;;8.15;4.72;;;16.30;99.90;;;;;;5147652;28;20039;-79
2021/08/07 00:12:02;;;;;;;7.18;4.95;;;16.30;99.90;;;;;;5114248;28;20476;-79
2021/08/07 00:14:29;;;;;;;6.60;4.95;;;16.30;99.90;;;;;;5130406;28;20031;-79
2021/08/07 00:16:56;;;;;;;6.20;4.43;;;16.30;99.90;;;;;;5147753;28;20119;-79
2021/08/07 00:19:23;;;;;;;9.30;4.95;;;16.30;99.90;;;;;;5147385;28;20126;-79
2021/08/07 00:21:50;;;;;;;8.07;4.63;;;16.30;99.90;;;;;;5148002;28;20040;-79
2021/08/07 00:24:17;;;;;;;6.95;4.47;;;16.30;99.90;;;;;;5114014;28;20047;-79
2021/08/07 00:26:44;;;;;;;7.57;4.82;;;16.30;99.90;;;;;;5147312;28;20035;-78
2021/08/07 00:29:11;;;;;;;8.23;4.72;;;16.30;99.90;;;;;;5147827;28;20039;-79
2021/08/07 00:31:38;;;;;;;8.77;4.18;;;16.30;99.90;;;;;;5130369;28;20502;-79
2021/08/07 00:34:04;;;;;;;7.65;4.47;;;16.30;99.90;;;;;;5130788;28;20036;-79
2021/08/07 00:36:31;;;;;;;7.20;5.10;;;16.40;99.90;;;;;;5130200;28;20043;-79
2021/08/07 00:38:58;;;;;;;8.55;4.55;;;16.40;99.90;;;;;;5114004;28;20119;-79
2021/08/07 00:41:25;;;;;;;9.95;4.85;;;16.40;99.90;;;;;;5113327;28;20035;-79
2021/08/07 00:43:52;;;;;;;6.95;5.15;;;16.40;99.90;;;;;;5147433;28;20119;-78
2021/08/07 00:46:18;;;;;;;7.97;4.90;;;16.30;99.90;;;;;;5148711;28;20115;-79
2021/08/07 00:48:45;;;;;;;7.38;4.55;;;16.30;99.90;;;;;;5130085;28;20066;-79
2021/08/07 00:51:13;;;;;;;8.38;4.63;;;16.30;99.90;;;;;;5148553;28;20043;-79
2021/08/07 00:53:40;;;;;;;7.38;4.68;;;16.30;99.90;;;;;;5129906;28;20468;-79
2021/08/07 00:56:07;;;;;;;7.40;5.00;;;16.30;99.90;;;;;;5113893;28;20070;-79
2021/08/07 00:58:34;;;;;;;7.50;4.68;;;16.30;99.90;;;;;;5129101;28;20071;-79
2021/08/07 01:01:09;;;;;;;9.63;5.10;;;16.30;99.90;;;;;;5130519;28;20084;-78
2021/08/07 01:03:52;;;;;;;6.40;4.75;;;16.30;99.90;;;;;;5146653;28;20059;-79
2021/08/07 01:06:31;;;;;;;7.30;5.07;;;16.30;99.90;;;;;;5147543;28;20469;-79
2021/08/07 01:09:06;;;;;;;7.88;4.90;;;16.30;99.90;;;;;;5147165;28;20027;-79
2021/08/07 01:11:41;;;;;;;9.13;4.88;;;16.20;99.90;;;;;;5148045;28;20529;-78
2021/08/07 01:14:09;;;;;;;6.65;4.18;;;16.20;99.90;;;;;;5147444;28;20040;-79
2021/08/07 01:16:43;;;;;;;8.65;4.30;;;16.20;99.90;;;;;;5146843;28;20133;-79
2021/08/07 01:19:14;;;;;;;9.80;4.55;;;16.20;99.90;;;;;;5130133;28;20035;-79
2021/08/07 01:21:52;;;;;;;9.57;4.30;;;16.20;99.90;;;;;;5146646;28;20377;-78
2021/08/07 01:24:32;;;;;;;6.90;3.97;;;16.20;99.90;;;;;;5147128;28;20106;-79
2021/08/07 01:27:31;;;;;;;7.07;3.60;;;16.20;99.90;;;;;;5147043;28;20035;-79
2021/08/07 01:29:59;;;;;;;8.43;3.58;;;16.20;99.90;;;;;;5145694;28;20047;-79
2021/08/07 01:32:30;;;;;;;8.73;3.10;;;16.20;99.90;;;;;;5130215;28;20108;-79
2021/08/07 01:34:59;;;;;;;6.88;3.03;;;16.20;99.90;;;;;;5146931;28;20472;-78
2021/08/07 01:37:27;;;;;;;8.23;3.20;;;16.20;99.90;;;;;;5130076;28;20576;-78
2021/08/07 01:39:56;;;;;;;7.28;3.28;;;16.20;99.90;;;;;;5112806;28;20031;-79
2021/08/07 01:42:27;;;;;;;7.93;2.53;;;16.20;99.90;;;;;;5148031;28;20036;-79
2021/08/07 01:44:54;;;;;;;7.15;2.70;;;16.20;99.90;;;;;;5146433;28;20429;-79
2021/08/07 01:47:39;;;;;;;5.20;2.47;;;16.20;99.90;;;;;;5129920;28;20110;-79
2021/08/07 01:50:19;;;;;;;6.53;2.53;;;16.20;99.90;;;;;;5146990;28;20403;-79
2021/08/07 01:52:48;;;;;;;8.13;2.30;;;16.20;99.90;;;;;;5146381;28;20418;-79
2021/08/07 01:55:20;;;;;;;7.32;2.40;;;16.20;99.90;;;;;;5147986;28;20468;-79
2021/08/07 01:57:59;;;;;;;8.55;2.42;;;16.20;99.90;;;;;;5146320;28;20078;-79
2021/08/07 02:00:25;;;;;;;8.35;2.40;;;16.20;99.90;;;;;;5146906;28;20431;-79
2021/08/07 02:02:54;;;;;;;7.38;2.40;;;16.10;99.90;;;;;;5129149;28;20059;-78
2021/08/07 02:05:22;;;;;;;5.80;2.15;;;16.20;99.90;;;;;;5147763;28;20495;-78
2021/08/07 02:07:50;;;;;;;7.13;2.10;;;16.20;99.90;;;;;;5129087;28;20050;-78
2021/08/07 02:10:19;;;;;;;4.53;1.90;;;16.10;99.90;;;;;;5132664;28;20048;-78
2021/08/07 02:12:47;;;;;;;6.38;2.22;;;16.10;99.90;;;;;;5151062;28;20044;-79
2021/08/07 02:15:19;;;;;;;3.88;1.90;;;16.10;99.90;;;;;;5133293;28;20035;-79
2021/08/07 02:17:47;;;;;;;6.10;1.73;;;16.10;99.90;;;;;;5149926;28;20434;-79
2021/08/07 02:20:16;;;;;;;6.68;1.92;;;16.10;99.90;;;;;;5151401;28;20040;-79
2021/08/07 02:22:49;;;;;;;7.85;2.45;;;16.10;99.90;;;;;;5150046;28;20028;-79
2021/08/07 02:25:17;;;;;;;4.68;1.70;;;16.10;99.90;;;;;;5150347;28;20043;-79
2021/08/07 02:27:44;;;;;;;6.50;1.80;;;16.10;99.90;;;;;;5149575;28;20040;-79
2021/08/07 02:30:11;;;;;;;5.95;2.22;;;16.00;99.90;;;;;;5133445;28;20032;-79
2021/08/07 02:32:39;;;;;;;8.27;2.35;;;16.00;99.90;;;;;;5149515;28;20084;-79
2021/08/07 02:35:08;;;;;;;8.75;2.95;;;16.00;99.90;;;;;;5149938;28;20498;-79
2021/08/07 02:37:35;;;;;;;6.05;1.90;;;16.00;99.90;;;;;;5149812;28;20063;-78
2021/08/07 02:40:06;;;;;;;5.20;1.90;;;16.00;99.90;;;;;;5132328;28;20046;-78
2021/08/07 02:42:34;;;;;;;7.07;1.90;;;16.00;99.90;;;;;;5151108;27;20428;-78
2021/08/07 02:45:05;;;;;;;5.30;1.80;;;16.00;99.90;;;;;;5132609;28;20396;-79
2021/08/07 02:47:34;;;;;;;6.60;2.10;;;16.00;99.90;;;;;;5149581;28;20376;-79
2021/08/07 02:50:05;;;;;;;4.63;2.00;;;16.00;99.90;;;;;;5132321;28;20494;-79
2021/08/07 02:52:33;;;;;;;4.95;2.20;;;15.90;99.90;;;;;;5149752;28;20039;-79
2021/08/07 02:55:03;;;;;;;5.60;2.00;;;15.90;99.90;;;;;;5149146;28;20471;-79
2021/08/07 02:57:30;;;;;;;8.40;2.30;;;15.90;99.90;;;;;;5116399;28;20039;-79
2021/08/07 02:59:58;;;;;;;4.65;2.65;;;15.90;99.90;;;;;;5148921;28;20059;-79
2021/08/07 03:02:26;;;;;;;6.53;2.88;;;15.90;99.90;;;;;;5150364;28;20135;-79
2021/08/07 03:04:52;;;;;;;5.10;2.90;;;15.90;99.90;;;;;;5132057;28;20073;-78
2021/08/07 03:07:19;;;;;;;5.22;2.90;;;15.90;99.90;;;;;;5150405;28;20071;-78
2021/08/07 03:09:47;;;;;;;6.35;3.20;;;15.90;99.90;;;;;;5115413;28;20459;-80
2021/08/07 03:12:15;;;;;;;5.45;3.30;;;15.90;99.90;;;;;;5132657;28;20032;-80
2021/08/07 03:14:43;;;;;;;6.40;3.35;;;15.90;99.90;;;;;;5150271;28;20044;-79
2021/08/07 03:17:10;;;;;;;6.63;3.20;;;15.90;99.90;;;;;;5149328;28;20070;-79
2021/08/07 03:19:37;;;;;;;5.82;3.20;;;15.90;99.90;;;;;;5132737;28;20067;-79
2021/08/07 03:22:04;;;;;;;9.00;3.22;;;15.90;99.90;;;;;;5131085;28;20529;-80
2021/08/07 03:24:31;;;;;;;8.07;3.60;;;15.80;99.90;;;;;;5148983;28;20040;-80
2021/08/07 03:26:57;;;;;;;9.30;3.50;;;15.80;99.90;;;;;;5114686;28;20468;-79
2021/08/07 03:29:24;;;;;;;8.75;3.70;;;15.80;99.90;;;;;;5131853;28;20036;-79
2021/08/07 03:31:51;;;;;;;8.02;3.20;;;15.80;99.90;;;;;;5114714;28;20047;-79
2021/08/07 03:34:18;;;;;;;6.75;3.75;;;15.80;99.90;;;;;;5131733;28;20119;-79
2021/08/07 03:36:45;;;;;;;11.50;3.65;;;15.80;99.90;;;;;;5131883;28;20039;-79
2021/08/07 03:39:11;;;;;;;7.05;3.33;;;15.80;99.90;;;;;;5131503;28;20046;-80
2021/08/07 03:41:38;;;;;;;5.97;3.38;;;15.70;99.90;;;;;;5114934;28;20212;-79
2021/08/07 03:44:05;;;;;;;6.95;3.30;;;15.70;99.90;;;;;;5131116;28;20059;-80
2021/08/07 03:46:34;;;;;;;7.25;3.20;;;15.70;99.90;;;;;;5131904;28;20031;-79
2021/08/07 03:49:02;;;;;;;7.55;3.15;;;15.60;99.90;;;;;;5114231;28;20043;-79
2021/08/07 03:51:28;;;;;;;6.85;2.92;;;15.60;99.90;;;;;;5148442;28;20409;-80
2021/08/07 03:53:55;;;;;;;10.30;3.20;;;15.60;99.90;;;;;;5148648;28;20044;-80
2021/08/07 03:56:22;;;;;;;7.40;2.88;;;15.60;99.90;;;;;;5131054;28;20123;-80
2021/08/07 03:58:49;;;;;;;8.40;3.03;;;15.60;99.90;;;;;;5113757;28;20046;-80
2021/08/07 04:01:16;;;;;;;6.70;3.13;;;15.50;99.90;;;;;;5113927;28;20048;-79
2021/08/07 04:03:43;;;;;;;9.65;2.95;;;15.60;99.90;;;;;;5130605;28;20444;-79
2021/08/07 04:06:09;;;;;;;7.53;2.78;;;15.50;99.90;;;;;;5129938;28;20051;-79
2021/08/07 04:08:36;;;;;;;9.07;3.13;;;15.50;99.90;;;;;;5147527;28;20103;-79
2021/08/07 04:11:03;;;;;;;9.07;3.10;;;15.50;99.90;;;;;;5130629;28;20039;-80
2021/08/07 04:13:30;;;;;;;4.80;2.40;;;15.40;99.90;;;;;;5131060;28;20039;-80
2021/08/07 04:15:57;;;;;;;8.02;2.88;;;15.40;99.90;;;;;;5147515;28;20061;-80
2021/08/07 04:18:24;;;;;;;6.82;2.83;;;15.30;99.90;;;;;;5114247;28;20042;-80
2021/08/07 04:20:52;;;;;;;8.48;3.13;;;15.30;99.90;;;;;;5149150;28;20555;-80
2021/08/07 04:23:19;;;;;;;5.95;2.70;;;15.20;99.90;;;;;;5114626;28;20039;-80
2021/08/07 04:25:46;;;;;;;8.45;2.95;;;15.20;99.90;;;;;;5130862;28;20089;-80
2021/08/07 04:28:13;;;;;;;7.47;2.65;;;15.10;99.90;;;;;;5147417;28;20429;-80
2021/08/07 04:30:39;;;;;;;7.38;2.78;;;15.10;99.90;;;;;;5148986;28;20135;-80
2021/08/07 04:33:08;;;;;;;8.55;3.13;;;15.10;99.90;;;;;;5130275;28;20046;-80
2021/08/07 04:35:36;;;;;;;7.93;2.97;;;15.00;99.90;;;;;;5148868;28;20039;-80
2021/08/07 04:38:03;;;;;;;7.43;3.00;;;15.00;99.90;;;;;;5148305;28;20399;-80
2021/08/07 04:40:30;;;;;;;8.77;3.00;;;15.00;99.90;;;;;;5130606;28;20043;-80
2021/08/07 04:42:57;;;;;;;9.18;3.10;;;14.90;99.90;;;;;;5130204;28;20039;-80
2021/08/07 04:45:24;;;;;;;7.90;3.30;;;14.90;99.90;;;;;;5114055;28;20035;-79
2021/08/07 04:47:54;;;;;;;6.93;3.08;;;14.90;99.90;;;;;;5130477;28;20031;-80
2021/08/07 04:50:22;;;;;;;5.45;2.90;;;14.90;99.90;;;;;;5146923;28;20446;-79
2021/08/07 04:52:49;;;;;;;8.57;3.30;;;14.90;99.90;;;;;;5147368;28;20039;-79
2021/08/07 04:55:16;;;;;;;11.30;3.50;;;14.90;99.90;;;;;;5113275;28;20043;-80
2021/08/07 04:57:43;;;;;;;7.43;3.50;;;14.90;99.90;;;;;;5113564;28;20483;-80
2021/08/07 05:00:10;;;;;;;7.28;3.50;;;14.90;99.90;;;;;;5146851;28;20093;-80
2021/08/07 05:02:37;;;;;;;8.20;3.55;;;14.90;99.90;;;;;;5130362;28;20046;-80
2021/08/07 05:05:04;;;;;;;8.05;3.50;;;14.80;99.90;;;;;;5146817;28;20544;-79
2021/08/07 05:07:31;;;;;;;7.82;3.60;;;14.90;99.90;;;;;;5130350;28;20047;-80
2021/08/07 05:10:00;;;;;;;9.68;3.53;;;14.90;99.90;;;;;;5129912;28;20395;-80
2021/08/07 05:12:27;;;;;;;7.90;3.30;;;14.90;99.90;;;;;;5147161;28;20040;-80
2021/08/07 05:14:55;;;;;;;11.18;3.70;;;14.90;99.90;;;;;;5130305;28;20042;-80
2021/08/07 05:17:26;;;;;;;7.85;3.20;;;15.00;99.90;;;;;;5146638;28;20042;-80
2021/08/07 05:19:53;;;;;;;11.38;3.75;;;15.00;99.90;;;;;;5147201;28;20089;-79
2021/08/07 05:22:22;;;;;;;8.48;2.90;;;15.10;99.90;;;;;;5146632;28;20127;-79
2021/08/07 05:24:49;;;;;;;9.00;3.42;;;15.10;99.90;;;;;;5130206;28;20118;-79
2021/08/07 05:27:16;;;;;;;9.30;3.25;;;15.10;99.90;;;;;;5146586;28;20028;-80
2021/08/07 05:29:43;;;;;;;10.52;3.30;;;15.10;99.90;;;;;;5113745;28;20040;-80
2021/08/07 05:32:10;;;;;;;10.07;3.10;;;15.10;99.90;;;;;;5147839;28;20052;-80
2021/08/07 05:34:37;;;;;;;9.55;2.83;;;15.10;99.90;;;;;;5130040;28;20441;-79
2021/08/07 05:37:04;;;;;;;11.68;3.80;;;15.20;99.90;;;;;;5129592;28;20495;-79
2021/08/07 05:39:30;;;;;;;8.63;3.42;;;15.20;99.90;;;;;;5130042;28;20031;-79
2021/08/07 05:41:57;;;;;;;9.02;3.00;;;15.30;99.90;;;;;;5109826;28;20028;-79
2021/08/07 05:44:24;;;;;;;7.00;3.20;;;15.50;99.90;;;;;;5142869;28;20458;-79
2021/08/07 05:46:51;;;;;;;7.80;2.95;;;15.60;99.90;;;;;;5150897;28;20396;-79
2021/08/07 05:49:17;;;;;;;8.32;3.30;;;15.70;99.90;;;;;;5146642;28;20386;-79
2021/08/07 05:51:44;;;;;;;8.77;3.05;;;15.80;99.90;;;;;;5128743;28;20024;-79
2021/08/07 05:54:11;;;;;;;10.48;3.40;;;15.90;99.90;;;;;;5098985;28;20477;-79
2021/08/07 05:56:38;;;;;;;9.20;2.80;;;15.90;99.90;;;;;;5097234;28;20119;-80
2021/08/07 05:59:06;;;;;;;7.72;2.50;;;16.00;99.90;;;;;;5129809;28;20043;-80
2021/08/07 06:01:32;;;;;;;7.97;2.40;;;16.00;99.90;;;;;;5104555;28;20080;-79
2021/08/07 06:03:59;;;;;;;7.40;2.60;;;16.00;99.90;;;;;;5129937;28;20123;-79
2021/08/07 06:06:26;;;;;;;8.23;3.10;;;16.00;99.90;;;;;;5112635;28;20124;-79
2021/08/07 06:08:53;;;;;;;11.32;3.15;;;16.00;99.90;;;;;;5131070;28;20040;-79
2021/08/07 06:11:20;;;;;;;7.88;2.75;;;16.00;99.90;;;;;;5096040;28;20032;-79
2021/08/07 06:13:47;;;;;;;8.93;2.72;;;15.90;99.90;;;;;;5096636;28;20040;-80
2021/08/07 06:16:14;;;;;;;9.82;3.00;;;15.90;99.90;;;;;;5123319;28;20038;-80
2021/08/07 06:18:40;;;;;;;9.77;2.95;;;15.80;99.90;;;;;;5134800;28;20036;-80
2021/08/07 06:21:07;;;;;;;11.98;2.95;;;15.80;99.90;;;;;;5126831;28;20039;-80
2021/08/07 06:23:34;;;;;;;9.77;3.08;;;15.80;99.90;;;;;;5112591;28;20098;-80
2021/08/07 06:26:01;;;;;;;8.77;2.90;;;15.80;99.90;;;;;;5129799;28;20438;-80
2021/08/07 06:28:28;;;;;;;11.85;3.28;;;15.80;99.90;;;;;;5120909;28;20368;-80
2021/08/07 06:30:55;;;;;;;7.60;2.70;;;15.90;99.90;;;;;;5133986;28;20111;-79
2021/08/07 06:33:21;;;;;;;9.77;2.78;;;15.90;99.90;;;;;;5123586;28;20070;-80
2021/08/07 06:35:48;;;;;;;10.25;3.30;;;16.00;99.90;;;;;;5133269;28;20032;-80
2021/08/07 06:38:15;;;;;;;10.02;3.50;;;16.10;99.90;;;;;;5113659;28;20057;-80
2021/08/07 06:40:42;;;;;;;7.30;2.65;;;16.10;99.90;;;;;;5112770;28;20445;-80
2021/08/07 06:43:09;;;;;;;9.07;3.00;;;16.20;99.90;;;;;;5107152;28;20031;-80
2021/08/07 06:45:35;;;;;;;8.82;2.83;;;16.20;99.90;;;;;;5130499;28;20032;-81
2021/08/07 06:48:03;;;;;;;8.73;2.80;;;16.30;99.90;;;;;;5128519;28;20035;-82
2021/08/07 06:50:29;;;;;;;9.30;2.78;;;16.40;99.90;;;;;;5132360;28;20085;-81
2021/08/07 06:52:56;;;;;;;7.03;2.42;;;16.40;99.90;;;;;;5132479;28;20031;-82
2021/08/07 06:55:23;;;;;;;6.30;2.60;;;16.60;99.90;;;;;;5147853;28;20044;-80
2021/08/07 06:57:50;;;;;;;8.60;3.05;;;16.70;99.90;;;;;;5132380;28;20040;-75
2021/08/07 07:00:16;;;;;;;10.13;2.83;;;16.80;99.90;;;;;;5148726;28;20039;-81
2021/08/07 07:02:43;;;;;;;10.43;2.78;;;16.90;99.90;;;;;;5132170;28;20061;-81
2021/08/07 07:05:11;;;;;;;13.40;3.00;;;17.00;99.90;;;;;;5149391;28;20044;-80
2021/08/07 07:07:38;;;;;;;9.02;2.53;;;17.10;99.90;;;;;;5128252;28;20469;-81
2021/08/07 07:10:10;;;;;;;10.77;3.13;;;17.20;99.90;;;;;;5120306;28;20385;-81
2021/08/07 07:12:37;;;;;;;9.55;2.85;;;17.30;99.90;;;;;;5138260;28;20499;-80
2021/08/07 07:15:05;;;;;;;7.57;2.60;;;17.40;99.90;;;;;;5120823;28;20052;-80
2021/08/07 07:17:32;;;;;;;9.85;3.08;;;17.50;99.90;;;;;;5136699;28;20044;-81
2021/08/07 07:20:00;;;;;;;10.77;2.90;;;17.50;99.90;;;;;;5128821;28;20214;-81
2021/08/07 07:22:27;;;;;;;10.48;2.92;;;17.50;99.90;;;;;;5095199;28;20543;-82
2021/08/07 07:24:54;;;;;;;9.55;2.88;;;17.50;99.90;;;;;;5095166;28;20119;-81
2021/08/07 07:27:21;;;;;;;7.80;2.97;;;17.50;99.90;;;;;;5094311;28;20115;-81
2021/08/07 07:29:48;;;;;;;11.73;3.08;;;17.50;99.90;;;;;;5111435;28;20075;-81
2021/08/07 07:32:14;;;;;;;9.57;2.80;;;17.50;99.90;;;;;;5128242;28;20392;-82
2021/08/07 07:34:41;;;;;;;11.68;2.65;;;17.50;99.90;;;;;;5110917;28;20036;-81
2021/08/07 07:37:08;;;;;;;7.28;2.58;;;17.60;99.90;;;;;;5128093;28;20043;-82
2021/08/07 07:39:35;;;;;;;14.95;2.58;;;17.70;99.90;;;;;;5112986;28;20032;-80
2021/08/07 07:42:02;;;;;;;7.45;2.50;;;17.80;99.90;;;;;;5114809;28;20062;-80
2021/08/07 07:44:29;;;;;;;8.65;2.55;;;17.90;99.90;;;;;;5148173;28;20443;-80
2021/08/07 07:46:55;;;;;;;6.28;2.25;;;18.00;99.90;;;;;;5148526;28;20119;-80
2021/08/07 07:49:23;;;;;;;6.38;2.45;;;18.00;99.90;;;;;;5130934;28;20035;-80
2021/08/07 07:51:49;;;;;;;8.30;2.47;;;18.00;99.90;;;;;;5149502;28;20047;-80
2021/08/07 07:54:16;;;;;;;10.15;2.53;;;18.00;99.90;;;;;;5114556;28;20032;-80
2021/08/07 07:56:43;;;;;;;8.60;2.80;;;18.00;99.90;;;;;;5113983;28;20031;-80
2021/08/07 07:59:10;;;;;;;11.63;2.83;;;17.90;99.90;;;;;;5149500;28;20046;-81
2021/08/07 08:01:37;;;;;;;7.05;2.47;;;18.10;99.90;;;;;;5130770;28;20043;-80
2021/08/07 08:04:04;;;;;;;8.15;2.50;;;18.20;99.90;;;;;;5149135;28;20442;-80
2021/08/07 08:06:30;;;;;;;6.50;2.40;;;18.30;99.90;;;;;;5148336;28;20032;-80
2021/08/07 08:08:57;;;;;;;13.43;2.50;;;18.40;99.90;;;;;;5148039;28;20040;-81
2021/08/07 08:11:24;;;;;;;6.72;2.22;;;18.50;99.90;;;;;;5130635;28;20039;-80
2021/08/07 08:13:51;;;;;;;8.95;2.47;;;18.60;99.90;;;;;;5114382;28;20372;-81
2021/08/07 08:16:18;;;;;;;5.93;2.15;;;18.70;99.90;;;;;;5147958;28;20067;-81
2021/08/07 08:18:45;;;;;;;7.53;2.22;;;18.70;99.90;;;;;;5148899;28;20039;-80
2021/08/07 08:21:12;;;;;;;8.30;2.15;;;18.70;99.90;;;;;;5147763;28;20043;-80
2021/08/07 08:23:39;;;;;;;11.40;2.17;;;18.80;99.90;;;;;;5147294;28;20510;-80
2021/08/07 08:26:06;;;;;;;6.90;2.28;;;18.80;99.90;;;;;;5130572;28;20039;-79
2021/08/07 08:28:33;;;;;;;6.55;2.30;;;18.80;99.90;;;;;;5147208;28;20042;-80
2021/08/07 08:30:59;;;;;;;7.95;2.28;;;18.90;99.90;;;;;;5123295;28;20043;-80
2021/08/07 08:33:27;;;;;;;5.50;2.20;;;19.00;99.90;;;;;;5135644;28;20043;-80
2021/08/07 08:35:54;;;;;;;7.50;2.13;;;19.00;99.90;;;;;;5095061;28;20059;-80
2021/08/07 08:38:21;;;;;;;6.45;2.20;;;19.10;99.90;;;;;;5145628;28;20055;-80
2021/08/07 08:40:47;;;;;;;5.28;2.50;;;19.10;99.90;;;;;;5141379;28;20508;-80
2021/08/07 08:43:16;;;;;;;8.38;2.15;;;19.10;99.90;;;;;;5141747;28;20038;-80
2021/08/07 08:45:45;;;;;;;8.05;2.30;;;19.10;99.90;;;;;;5129884;28;20047;-77
2021/08/07 08:48:12;;;;;;;8.52;2.00;;;19.20;99.90;;;;;;5147308;28;20429;-80
2021/08/07 08:50:40;;;;;;;5.80;1.80;;;19.20;99.90;;;;;;5147224;28;20042;-81
2021/08/07 08:53:07;;;;;;;4.80;1.70;;;19.30;99.90;;;;;;5113721;28;20032;-81
2021/08/07 08:55:34;;;;;;;7.50;1.85;;;19.40;99.90;;;;;;5129879;28;20188;-81
2021/08/07 08:58:01;;;;;;;7.30;1.90;;;19.40;99.90;;;;;;5123434;28;20036;-81
2021/08/07 09:00:28;;;;;;;3.75;1.40;;;19.30;99.90;;;;;;5110092;28;20042;-81
2021/08/07 09:02:55;;;;;;;4.88;1.50;;;19.20;99.90;;;;;;5109502;28;20127;-81
2021/08/07 09:05:22;;;;;;;4.70;1.50;;;19.20;99.90;;;;;;5126900;28;20046;-81
2021/08/07 09:07:49;;;;;;;5.85;1.67;;;19.20;99.90;;;;;;5126022;28;20239;-81
2021/08/07 09:10:20;;;;;;;6.63;1.80;;;19.20;99.90;;;;;;5126707;28;20113;-81
2021/08/07 09:12:51;;;;;;;6.13;1.75;;;19.40;99.90;;;;;;5126093;28;20400;-80
2021/08/07 09:15:33;;;;;;;3.75;1.42;;;19.50;99.90;;;;;;5126603;28;20032;-81
2021/08/07 09:18:09;;;;;;;5.65;1.80;;;19.60;99.90;;;;;;5126993;28;20048;-80
2021/08/07 09:20:37;;;;;;;5.88;1.40;;;19.70;99.90;;;;;;5129891;28;20056;-81
2021/08/07 09:23:05;;;;;;;4.63;1.15;;;19.70;99.90;;;;;;5097301;28;20063;-82
2021/08/07 09:25:40;;;;;;;3.80;1.30;;;19.90;99.90;;;;;;5130799;28;20038;-81
2021/08/07 09:28:07;;;;;;;6.60;1.33;;;20.00;99.90;;;;;;5130692;28;20047;-82
2021/08/07 09:30:37;;;;;;;4.22;1.20;;;20.10;99.90;;;;;;5130150;28;20036;-79
2021/08/07 09:33:09;;;;;;;4.78;1.30;;;20.30;99.90;;;;;;5131839;28;20064;-80
2021/08/07 09:35:44;;;;;;;3.45;1.00;;;20.40;99.90;;;;;;5130224;28;20068;-80
2021/08/07 09:38:11;;;;;;;4.80;1.00;;;20.50;99.90;;;;;;5130570;28;20119;-81
2021/08/07 09:41:04;;;;;;;5.60;0.98;;;20.60;99.90;;;;;;5131169;28;20494;-80
2021/08/07 09:43:32;;;;;;;5.13;1.15;;;20.60;99.90;;;;;;5130259;28;20038;-80
2021/08/07 09:46:02;;;;;;;6.03;1.35;;;20.80;99.90;;;;;;5131174;28;20040;-80
2021/08/07 09:48:42;;;;;;;4.20;1.35;;;20.80;99.90;;;;;;5130162;28;20040;-81
2021/08/07 09:51:30;;;;;;;3.10;1.40;;;20.80;99.90;;;;;;5130411;28;20377;-80
2021/08/07 09:54:09;;;;;;;3.65;1.30;;;20.80;99.90;;;;;;5129610;28;20047;-80
2021/08/07 09:56:47;;;;;;;7.53;1.30;;;20.90;99.90;;;;;;5131346;28;20044;-81
2021/08/07 09:59:14;;;;;;;4.25;1.23;;;20.90;99.90;;;;;;5130320;28;20541;-81
2021/08/07 10:01:41;;;;;;;3.13;1.10;;;20.90;99.90;;;;;;5131125;28;20115;-80
2021/08/07 10:04:11;;;;;;;4.57;1.10;;;20.80;99.90;;;;;;5096457;28;20072;-81
2021/08/07 10:06:39;;;;;;;3.63;1.27;;;20.60;99.90;;;;;;5129611;28;20093;-80
2021/08/07 10:09:08;;;;;;;4.00;1.27;;;20.50;99.90;;;;;;5129870;28;20130;-83
2021/08/07 10:11:35;;;;;;;3.22;1.00;;;20.50;99.90;;;;;;5130332;28;20456;-83
2021/08/07 10:14:04;;;;;;;2.78;1.10;;;20.80;99.90;;;;;;5129698;28;20055;-87
2021/08/07 10:16:33;;;;;;;4.22;1.20;;;21.00;99.90;;;;;;5097019;28;20031;-86
2021/08/07 10:19:01;;;;;;;13.50;2.58;;;21.20;99.90;;;;;;5131449;28;20055;-82
2021/08/07 10:21:29;;;;;;;8.10;1.65;;;21.30;99.90;;;;;;5113489;28;20054;-83
2021/08/07 10:23:56;;;;;;;8.60;1.65;;;21.40;99.90;;;;;;5096391;28;20365;-84
2021/08/07 10:26:26;;;;;;;9.60;1.38;;;21.60;99.90;;;;;;5130114;28;20043;-83
2021/08/07 10:28:57;;;;;;;3.72;1.40;;;21.80;99.90;;;;;;5130491;28;20036;-84
2021/08/07 10:31:25;;;;;;;4.90;1.25;;;21.90;99.90;;;;;;5130780;28;20074;-83
2021/08/07 10:33:58;;;;;;;5.53;1.40;;;22.10;99.90;;;;;;5129168;28;20063;-84
2021/08/07 10:36:26;;;;;;;3.55;1.10;;;22.20;99.90;;;;;;5139020;28;20420;-87
2021/08/07 10:38:54;;;;;;;4.50;1.27;;;22.20;99.90;;;;;;5118782;28;20043;-83
2021/08/07 10:41:22;;;;;;;3.95;1.45;;;21.80;99.90;;;;;;5133045;28;20396;-83
2021/08/07 10:43:57;;;;;;;4.28;1.42;;;21.70;99.90;;;;;;5129823;28;20039;-86
2021/08/07 10:46:24;;;;;;;5.07;1.60;;;21.80;99.90;;;;;;5130110;28;20043;-89
2021/08/07 10:48:58;;;;;;;4.85;1.50;;;21.80;99.90;;;;;;5113193;28;20032;-89
2021/08/07 10:51:25;;;;;;;5.03;1.30;;;22.00;99.90;;;;;;5142721;28;20103;-89
2021/08/07 10:53:53;;;;;;;5.10;1.20;;;21.80;99.90;;;;;;5147120;28;20059;-91
2021/08/07 10:56:29;;;;;;;4.28;1.33;;;21.70;99.90;;;;;;5130206;28;20036;-93
2021/08/07 10:58:58;;;;;;;5.63;1.40;;;21.60;99.90;;;;;;5130797;28;20507;-93
2021/08/07 11:01:25;;;;;;;5.20;1.55;;;21.80;99.90;;;;;;5131070;28;20481;-88
2021/08/07 11:04:01;;;;;;;5.85;1.23;;;22.00;99.90;;;;;;5129707;28;20040;-89
2021/08/07 11:06:43;;;;;;;4.03;1.17;;;22.10;99.90;;;;;;5129950;28;20412;-84
2021/08/07 11:09:21;;;;;;;4.72;1.20;;;22.20;99.90;;;;;;5129982;28;20093;-89
2021/08/07 11:12:10;;;;;;;5.43;1.17;;;22.60;99.90;;;;;;5129801;28;20574;-87
2021/08/07 11:14:40;;;;;;;4.05;1.17;;;22.80;99.90;;;;;;5116686;28;20028;-91
2021/08/07 11:17:06;;;;;;;3.50;1.30;;;23.10;99.90;;;;;;5130819;28;20119;-88
2021/08/07 11:20:06;;;;;;;6.15;1.73;;;23.20;99.90;;;;;;5131226;28;20043;-87
2021/08/07 11:22:41;;;;;;;4.00;1.33;;;23.30;99.90;;;;;;5130660;28;20130;-88
2021/08/07 11:25:21;;;;;;;4.88;1.20;;;23.40;99.90;;;;;;5129132;28;20032;-85
2021/08/07 11:27:58;;;;;;;4.95;1.38;;;23.50;99.90;;;;;;5118262;28;20032;-91
2021/08/07 11:30:29;;;;;;;4.38;1.20;;;23.70;99.90;;;;;;5145043;28;20027;-93
2021/08/07 11:33:16;;;;;;;3.42;1.10;;;23.70;99.90;;;;;;5138288;28;20035;-88
2021/08/07 11:35:45;;;;;;;4.07;1.30;;;23.80;99.90;;;;;;5130073;28;20047;-87
2021/08/07 11:38:13;;;;;;;3.15;1.17;;;23.70;99.90;;;;;;5144141;28;20039;-89
2021/08/07 11:40:43;;;;;;;7.43;1.20;;;23.50;99.90;;;;;;5133472;28;20059;-92
2021/08/07 11:43:18;;;;;;;25.58;3.15;;;23.30;99.90;;;;;;5148855;28;20106;-90
2021/08/07 11:45:47;;;;;;;62.47;5.50;;;23.40;99.90;;;;;;5150467;28;20403;-89
2021/08/07 11:48:32;;;;;;;5.28;1.25;;;23.50;99.90;;;;;;5149812;28;20084;-91
2021/08/07 11:51:02;;;;;;;5.40;1.40;;;23.50;99.90;;;;;;5146623;28;20111;-89
2021/08/07 11:53:29;;;;;;;56.83;7.40;;;23.50;99.90;;;;;;5130104;28;20039;-88
2021/08/07 11:55:57;;;;;;;6.28;1.35;;;23.20;99.90;;;;;;5130465;28;20019;-89
2021/08/07 11:58:24;;;;;;;3.33;1.10;;;23.00;99.90;;;;;;5130198;28;20123;-90
2021/08/07 12:01:00;;;;;;;4.35;1.10;;;23.00;99.90;;;;;;5130301;28;20376;-87
2021/08/07 12:03:28;;;;;;;3.97;1.08;;;23.30;99.90;;;;;;5130028;28;20135;-87
2021/08/07 12:05:56;;;;;;;8.95;1.38;;;23.50;99.90;;;;;;5128336;28;20043;-86
2021/08/07 12:08:25;;;;;;;4.85;1.58;;;23.60;99.90;;;;;;5149256;28;20397;-89
2021/08/07 12:10:54;;;;;;;6.50;1.30;;;23.80;99.90;;;;;;5137778;28;20047;-93
2021/08/07 12:13:28;;;;;;;19.83;2.22;;;24.00;99.90;;;;;;5142779;28;20032;-91
2021/08/07 12:16:03;;;;;;;2.88;1.10;;;24.10;99.90;;;;;;5149709;28;20059;-91
2021/08/07 12:18:44;;;;;;;3.33;1.30;;;24.00;99.90;;;;;;5149621;28;20044;-88
2021/08/07 12:21:19;;;;;;;4.80;1.20;;;24.00;99.80;;;;;;5149645;28;20482;-90
2021/08/07 12:23:48;;;;;;;9.77;1.55;;;24.00;99.90;;;;;;5150160;28;20043;-92
2021/08/07 12:26:17;;;;;;;3.70;1.30;;;24.10;99.90;;;;;;5149739;28;20031;-94
2021/08/07 12:28:45;;;;;;;6.47;1.60;;;24.20;99.90;;;;;;5132750;28;20059;-88
2021/08/07 12:31:13;;;;;;;3.75;1.30;;;24.20;99.90;;;;;;5145555;28;20103;-89
2021/08/07 12:33:44;;;;;;;3.88;1.17;;;24.20;99.90;;;;;;5128832;28;20036;-89
2021/08/07 12:36:12;;;;;;;3.47;1.25;;;24.20;99.90;;;;;;5131911;28;20034;-88
2021/08/07 12:38:47;;;;;;;4.03;1.40;;;24.30;99.90;;;;;;5149217;28;20496;-86
2021/08/07 12:41:18;;;;;;;;;;;24.50;99.90;;;;;;5147875;28;20066;-85
2021/08/07 12:43:46;;;;;;;5.63;1.10;;;24.40;98.10;;;;;;5141529;28;19966;-86
2021/08/07 12:46:17;;;;;;;5.35;1.30;;;24.40;99.90;;;;;;5148580;28;20038;-84
2021/08/07 12:48:56;;;;;;;2.70;1.08;;;24.40;99.90;;;;;;5147593;28;20043;-84
2021/08/07 12:51:34;;;;;;;3.20;1.20;;;24.30;98.60;;;;;;5130441;28;20058;-83
2021/08/07 12:54:14;;;;;;;3.78;1.20;;;24.30;98.50;;;;;;5147057;28;20114;-83
2021/08/07 12:56:46;;;;;;;3.90;1.05;;;24.30;99.00;;;;;;5147676;28;20092;-84